sensor_id;sensor_type;location;lat;lon;timestamp;pressure;altitude;pressure_sealevel;temperature;humidity
69239;BME280;56349;51.816;-0.026;2022-07-17T00:00:40;102001.00;;;30.17;25.64
69239;BME280;56349;51.816;-0.026;2022-07-17T00:03:04;102003.44;;;29.77;25.76
69239;BME280;56349;51.816;-0.026;2022-07-17T00:05:30;102006.19;;;29.91;25.85
69239;BME280;56349;51.816;-0.026;2022-07-17T00:07:56;102014.26;;;29.81;25.94
69239;BME280;56349;51.816;-0.026;2022-07-17T00:10:22;102018.03;;;29.70;26.02
69239;BME280;56349;51.816;-0.026;2022-07-17T00:12:48;102018.26;;;29.61;26.11
69239;BME280;56349;51.816;-0.026;2022-07-17T00:15:14;102020.66;;;29.52;26.19
69239;BME280;56349;51.816;-0.026;2022-07-17T00:17:40;102020.92;;;29.44;26.26
69239;BME280;56349;51.816;-0.026;2022-07-17T00:20:06;102020.19;;;29.59;26.31
69239;BME280;56349;51.816;-0.026;2022-07-17T00:22:31;102017.79;;;29.52;26.36
69239;BME280;56349;51.816;-0.026;2022-07-17T00:24:57;102022.93;;;29.66;26.43
69239;BME280;56349;51.816;-0.026;2022-07-17T00:27:23;102026.12;;;29.37;26.50
69239;BME280;56349;51.816;-0.026;2022-07-17T00:29:49;102024.89;;;29.52;26.56
69239;BME280;56349;51.816;-0.026;2022-07-17T00:32:15;102032.42;;;29.23;26.61
69239;BME280;56349;51.816;-0.026;2022-07-17T00:34:40;102036.61;;;29.39;26.68
69239;BME280;56349;51.816;-0.026;2022-07-17T00:37:06;102038.16;;;29.33;26.73
69239;BME280;56349;51.816;-0.026;2022-07-17T00:39:32;102035.50;;;29.28;26.77
69239;BME280;56349;51.816;-0.026;2022-07-17T00:41:58;102031.62;;;29.22;26.82
69239;BME280;56349;51.816;-0.026;2022-07-17T00:44:26;102030.21;;;29.16;26.87
69239;BME280;56349;51.816;-0.026;2022-07-17T00:46:50;102034.54;;;29.38;26.92
69239;BME280;56349;51.816;-0.026;2022-07-17T00:49:16;102035.43;;;29.05;26.97
69239;BME280;56349;51.816;-0.026;2022-07-17T00:51:42;102036.88;;;29.00;27.03
69239;BME280;56349;51.816;-0.026;2022-07-17T00:54:08;102032.31;;;28.95;27.06
69239;BME280;56349;51.816;-0.026;2022-07-17T00:56:33;102031.39;;;29.18;27.10
69239;BME280;56349;51.816;-0.026;2022-07-17T00:59:00;102034.66;;;28.86;27.15
69239;BME280;56349;51.816;-0.026;2022-07-17T01:01:24;102038.38;;;28.59;27.19
69239;BME280;56349;51.816;-0.026;2022-07-17T01:03:50;102037.19;;;29.03;27.23
69239;BME280;56349;51.816;-0.026;2022-07-17T01:06:16;102037.10;;;28.99;27.26
69239;BME280;56349;51.816;-0.026;2022-07-17T01:08:42;102036.83;;;28.95;27.30
69239;BME280;56349;51.816;-0.026;2022-07-17T01:11:09;102036.77;;;28.66;27.33
69239;BME280;56349;51.816;-0.026;2022-07-17T01:13:33;102033.07;;;29.11;27.37
69239;BME280;56349;51.816;-0.026;2022-07-17T01:15:59;102028.53;;;28.84;27.40
69239;BME280;56349;51.816;-0.026;2022-07-17T01:18:25;102025.25;;;28.53;27.44
69239;BME280;56349;51.816;-0.026;2022-07-17T01:20:51;102026.07;;;28.51;27.46
69239;BME280;56349;51.816;-0.026;2022-07-17T01:23:18;102021.81;;;28.75;27.48
69239;BME280;56349;51.816;-0.026;2022-07-17T01:25:42;102019.75;;;28.72;27.51
69239;BME280;56349;51.816;-0.026;2022-07-17T01:28:08;102019.16;;;28.43;27.52
69239;BME280;56349;51.816;-0.026;2022-07-17T01:30:33;102016.22;;;28.66;27.55
69239;BME280;56349;51.816;-0.026;2022-07-17T01:32:58;102016.08;;;28.36;27.58
69239;BME280;56349;51.816;-0.026;2022-07-17T01:35:24;102014.57;;;28.81;27.59
69239;BME280;56349;51.816;-0.026;2022-07-17T01:37:50;102012.94;;;28.55;27.66
69239;BME280;56349;51.816;-0.026;2022-07-17T01:40:17;102025.51;;;28.75;27.69
69239;BME280;56349;51.816;-0.026;2022-07-17T01:42:44;102026.98;;;28.51;27.71
69239;BME280;56349;51.816;-0.026;2022-07-17T01:45:08;102024.82;;;28.70;27.73
69239;BME280;56349;51.816;-0.026;2022-07-17T01:47:33;102023.28;;;28.68;27.73
69239;BME280;56349;51.816;-0.026;2022-07-17T01:50:00;102023.27;;;28.16;27.77
69239;BME280;56349;51.816;-0.026;2022-07-17T01:52:25;102021.37;;;28.62;27.79
69239;BME280;56349;51.816;-0.026;2022-07-17T01:54:51;102023.13;;;28.37;27.81
69239;BME280;56349;51.816;-0.026;2022-07-17T01:57:16;102026.74;;;28.34;27.83
69239;BME280;56349;51.816;-0.026;2022-07-17T01:59:41;102025.15;;;28.53;27.85
69239;BME280;56349;51.816;-0.026;2022-07-17T02:02:07;102026.10;;;28.02;27.88
69239;BME280;56349;51.816;-0.026;2022-07-17T02:04:33;102025.19;;;28.28;27.88
69239;BME280;56349;51.816;-0.026;2022-07-17T02:06:57;102023.59;;;28.27;27.88
69239;BME280;56349;51.816;-0.026;2022-07-17T02:09:23;102025.94;;;28.47;27.90
69239;BME280;56349;51.816;-0.026;2022-07-17T02:11:50;102030.00;;;28.22;27.92
69239;BME280;56349;51.816;-0.026;2022-07-17T02:14:16;102034.39;;;28.41;27.95
69239;BME280;56349;51.816;-0.026;2022-07-17T02:16:42;102034.40;;;28.16;27.97
69239;BME280;56349;51.816;-0.026;2022-07-17T02:19:08;102029.88;;;28.16;27.98
69239;BME280;56349;51.816;-0.026;2022-07-17T02:21:34;102021.84;;;28.14;27.98
69239;BME280;56349;51.816;-0.026;2022-07-17T02:23:59;102023.95;;;28.11;27.99
69239;BME280;56349;51.816;-0.026;2022-07-17T02:26:25;102026.55;;;28.32;28.01
69239;BME280;56349;51.816;-0.026;2022-07-17T02:28:51;102029.88;;;28.10;28.01
69239;BME280;56349;51.816;-0.026;2022-07-17T02:31:17;102030.43;;;28.13;27.97
69239;BME280;56349;51.816;-0.026;2022-07-17T02:33:42;102027.15;;;28.30;28.01
69239;BME280;56349;51.816;-0.026;2022-07-17T02:36:08;102026.63;;;28.25;28.06
69239;BME280;56349;51.816;-0.026;2022-07-17T02:38:34;102026.07;;;28.22;28.08
69239;BME280;56349;51.816;-0.026;2022-07-17T02:41:00;102025.63;;;28.19;28.13
69239;BME280;56349;51.816;-0.026;2022-07-17T02:43:26;102023.91;;;28.16;28.15
69239;BME280;56349;51.816;-0.026;2022-07-17T02:45:52;102020.40;;;27.91;28.18
69239;BME280;56349;51.816;-0.026;2022-07-17T02:48:18;102020.74;;;28.11;28.18
69239;BME280;56349;51.816;-0.026;2022-07-17T02:50:44;102017.44;;;28.10;28.20
69239;BME280;56349;51.816;-0.026;2022-07-17T02:53:10;102012.50;;;28.08;28.21
69239;BME280;56349;51.816;-0.026;2022-07-17T02:55:36;102005.18;;;28.07;28.22
69239;BME280;56349;51.816;-0.026;2022-07-17T02:58:02;102003.03;;;28.05;28.24
69239;BME280;56349;51.816;-0.026;2022-07-17T03:00:27;102007.70;;;28.04;28.25
69239;BME280;56349;51.816;-0.026;2022-07-17T03:02:53;102014.67;;;28.03;28.26
69239;BME280;56349;51.816;-0.026;2022-07-17T03:05:19;102021.70;;;28.01;28.28
69239;BME280;56349;51.816;-0.026;2022-07-17T03:07:45;102020.64;;;27.98;28.31
69239;BME280;56349;51.816;-0.026;2022-07-17T03:10:11;102022.42;;;27.97;28.33
69239;BME280;56349;51.816;-0.026;2022-07-17T03:12:37;102023.03;;;27.96;28.33
69239;BME280;56349;51.816;-0.026;2022-07-17T03:15:04;102024.08;;;27.94;28.34
69239;BME280;56349;51.816;-0.026;2022-07-17T03:17:28;102027.94;;;27.93;28.35
69239;BME280;56349;51.816;-0.026;2022-07-17T03:19:54;102029.41;;;27.91;28.37
69239;BME280;56349;51.816;-0.026;2022-07-17T03:22:20;102033.09;;;27.89;28.40
69239;BME280;56349;51.816;-0.026;2022-07-17T03:24:46;102032.98;;;27.86;28.41
69239;BME280;56349;51.816;-0.026;2022-07-17T03:27:11;102032.60;;;27.86;28.41
69239;BME280;56349;51.816;-0.026;2022-07-17T03:29:37;102027.38;;;27.84;28.44
69239;BME280;56349;51.816;-0.026;2022-07-17T03:32:04;102024.44;;;27.83;28.46
69239;BME280;56349;51.816;-0.026;2022-07-17T03:34:29;102024.67;;;27.83;28.51
69239;BME280;56349;51.816;-0.026;2022-07-17T03:36:55;102021.87;;;27.86;28.55
69239;BME280;56349;51.816;-0.026;2022-07-17T03:39:21;102026.88;;;27.92;28.57
69239;BME280;56349;51.816;-0.026;2022-07-17T03:41:46;102022.33;;;27.99;28.55
69239;BME280;56349;51.816;-0.026;2022-07-17T03:44:12;102022.37;;;28.10;28.50
69239;BME280;56349;51.816;-0.026;2022-07-17T03:46:38;102015.36;;;28.01;28.41
69239;BME280;56349;51.816;-0.026;2022-07-17T03:49:04;102015.48;;;28.41;28.29
69239;BME280;56349;51.816;-0.026;2022-07-17T03:51:31;102021.21;;;28.35;28.13
69239;BME280;56349;51.816;-0.026;2022-07-17T03:53:56;102026.53;;;28.52;27.95
69239;BME280;56349;51.816;-0.026;2022-07-17T03:56:23;102024.46;;;28.40;27.77
69239;BME280;56349;51.816;-0.026;2022-07-17T03:58:47;102024.59;;;28.51;27.61
69239;BME280;56349;51.816;-0.026;2022-07-17T04:01:13;102023.36;;;28.86;27.46
69239;BME280;56349;51.816;-0.026;2022-07-17T04:03:39;102020.79;;;28.63;27.37
69239;BME280;56349;51.816;-0.026;2022-07-17T04:06:05;102016.41;;;28.66;27.28
69239;BME280;56349;51.816;-0.026;2022-07-17T04:08:31;102018.82;;;28.64;27.23
69239;BME280;56349;51.816;-0.026;2022-07-17T04:10:56;102021.82;;;28.60;27.22
69239;BME280;56349;51.816;-0.026;2022-07-17T04:13:22;102020.78;;;28.81;27.22
69239;BME280;56349;51.816;-0.026;2022-07-17T04:15:48;102014.65;;;28.50;27.22
69239;BME280;56349;51.816;-0.026;2022-07-17T04:18:14;102019.72;;;28.70;27.24
69239;BME280;56349;51.816;-0.026;2022-07-17T04:20:40;102021.77;;;28.64;27.27
69239;BME280;56349;51.816;-0.026;2022-07-17T04:23:06;102022.47;;;28.29;27.30
69239;BME280;56349;51.816;-0.026;2022-07-17T04:25:32;102021.32;;;28.48;27.36
69239;BME280;56349;51.816;-0.026;2022-07-17T04:27:58;102020.51;;;28.14;27.40
69239;BME280;56349;51.816;-0.026;2022-07-17T04:30:24;102020.80;;;28.35;27.44
69239;BME280;56349;51.816;-0.026;2022-07-17T04:32:50;102018.42;;;28.29;27.47
69239;BME280;56349;51.816;-0.026;2022-07-17T04:35:16;102020.68;;;28.46;27.51
69239;BME280;56349;51.816;-0.026;2022-07-17T04:37:42;102022.60;;;28.17;27.57
69239;BME280;56349;51.816;-0.026;2022-07-17T04:40:09;102023.07;;;28.32;27.63
69239;BME280;56349;51.816;-0.026;2022-07-17T04:42:34;102022.48;;;28.27;27.66
69239;BME280;56349;51.816;-0.026;2022-07-17T04:45:00;102024.58;;;28.23;27.71
69239;BME280;56349;51.816;-0.026;2022-07-17T04:47:26;102016.78;;;28.17;27.76
69239;BME280;56349;51.816;-0.026;2022-07-17T04:49:52;102015.91;;;28.11;27.80
69239;BME280;56349;51.816;-0.026;2022-07-17T04:52:18;102013.65;;;28.06;27.85
69239;BME280;56349;51.816;-0.026;2022-07-17T04:54:44;102011.94;;;28.01;27.90
69239;BME280;56349;51.816;-0.026;2022-07-17T04:57:09;102014.85;;;27.98;27.93
69239;BME280;56349;51.816;-0.026;2022-07-17T04:59:35;102015.60;;;27.94;27.97
69239;BME280;56349;51.816;-0.026;2022-07-17T05:02:01;102017.87;;;27.90;27.99
69239;BME280;56349;51.816;-0.026;2022-07-17T05:04:27;102017.95;;;27.86;28.03
69239;BME280;56349;51.816;-0.026;2022-07-17T05:06:52;102016.66;;;28.31;28.07
69239;BME280;56349;51.816;-0.026;2022-07-17T05:09:18;102018.21;;;27.80;28.08
69239;BME280;56349;51.816;-0.026;2022-07-17T05:11:44;102019.11;;;27.79;28.10
69239;BME280;56349;51.816;-0.026;2022-07-17T05:14:10;102020.16;;;27.77;28.12
69239;BME280;56349;51.816;-0.026;2022-07-17T05:16:36;102020.82;;;27.73;28.16
69239;BME280;56349;51.816;-0.026;2022-07-17T05:19:02;102023.04;;;27.95;28.20
69239;BME280;56349;51.816;-0.026;2022-07-17T05:21:27;102020.43;;;27.66;28.23
69239;BME280;56349;51.816;-0.026;2022-07-17T05:23:53;102022.09;;;27.63;28.26
69239;BME280;56349;51.816;-0.026;2022-07-17T05:26:19;102023.51;;;27.66;28.24
69239;BME280;56349;51.816;-0.026;2022-07-17T05:28:44;102026.60;;;27.64;28.25
69239;BME280;56349;51.816;-0.026;2022-07-17T05:31:10;102027.13;;;27.62;28.27
69239;BME280;56349;51.816;-0.026;2022-07-17T05:33:36;102026.18;;;27.60;28.29
69239;BME280;56349;51.816;-0.026;2022-07-17T05:36:02;102026.01;;;27.56;28.32
69239;BME280;56349;51.816;-0.026;2022-07-17T05:38:27;102022.87;;;27.54;28.34
69239;BME280;56349;51.816;-0.026;2022-07-17T05:40:53;102020.66;;;27.29;28.37
69239;BME280;56349;51.816;-0.026;2022-07-17T05:43:19;102020.47;;;27.77;28.38
69239;BME280;56349;51.816;-0.026;2022-07-17T05:45:45;102020.28;;;27.49;28.39
69239;BME280;56349;51.816;-0.026;2022-07-17T05:48:11;102018.08;;;27.48;28.39
69239;BME280;56349;51.816;-0.026;2022-07-17T05:50:37;102019.56;;;27.46;28.40
69239;BME280;56349;51.816;-0.026;2022-07-17T05:53:03;102017.98;;;27.71;28.41
69239;BME280;56349;51.816;-0.026;2022-07-17T05:55:29;102018.45;;;27.42;28.43
69239;BME280;56349;51.816;-0.026;2022-07-17T05:57:55;102021.39;;;27.41;28.44
69239;BME280;56349;51.816;-0.026;2022-07-17T06:00:21;102022.48;;;27.42;28.57
69239;BME280;56349;51.816;-0.026;2022-07-17T06:02:47;102025.27;;;27.45;28.75
69239;BME280;56349;51.816;-0.026;2022-07-17T06:05:13;102025.22;;;27.46;29.13
69239;BME280;56349;51.816;-0.026;2022-07-17T06:07:39;102026.94;;;27.72;29.47
69239;BME280;56349;51.816;-0.026;2022-07-17T06:10:06;102029.01;;;27.47;29.67
69239;BME280;56349;51.816;-0.026;2022-07-17T06:12:31;102028.56;;;27.77;29.87
69239;BME280;56349;51.816;-0.026;2022-07-17T06:14:57;102030.50;;;27.51;30.00
69239;BME280;56349;51.816;-0.026;2022-07-17T06:17:23;102031.82;;;27.53;29.79
69239;BME280;56349;51.816;-0.026;2022-07-17T06:19:49;102030.70;;;27.57;29.85
69239;BME280;56349;51.816;-0.026;2022-07-17T06:22:15;102032.10;;;27.63;29.84
69239;BME280;56349;51.816;-0.026;2022-07-17T06:24:40;102033.85;;;27.74;29.78
69239;BME280;56349;51.816;-0.026;2022-07-17T06:27:06;102031.76;;;27.90;29.60
69239;BME280;56349;51.816;-0.026;2022-07-17T06:29:32;102032.18;;;28.09;29.41
69239;BME280;56349;51.816;-0.026;2022-07-17T06:31:58;102035.24;;;28.06;29.22
69239;BME280;56349;51.816;-0.026;2022-07-17T06:34:24;102040.55;;;28.01;28.93
69239;BME280;56349;51.816;-0.026;2022-07-17T06:36:50;102045.70;;;28.22;28.78
69239;BME280;56349;51.816;-0.026;2022-07-17T06:39:16;102047.61;;;28.20;28.48
69239;BME280;56349;51.816;-0.026;2022-07-17T06:41:44;102041.09;;;28.54;28.01
69239;BME280;56349;51.816;-0.026;2022-07-17T06:44:09;102040.99;;;28.63;27.62
69239;BME280;56349;51.816;-0.026;2022-07-17T06:46:32;102042.34;;;28.46;27.26
69239;BME280;56349;51.816;-0.026;2022-07-17T06:48:58;102040.70;;;28.50;27.04
69239;BME280;56349;51.816;-0.026;2022-07-17T06:51:24;102042.59;;;28.54;26.85
69239;BME280;56349;51.816;-0.026;2022-07-17T06:53:50;102041.67;;;28.38;26.69
69239;BME280;56349;51.816;-0.026;2022-07-17T06:56:16;102040.60;;;28.45;26.54
69239;BME280;56349;51.816;-0.026;2022-07-17T06:58:42;102042.94;;;28.51;26.43
69239;BME280;56349;51.816;-0.026;2022-07-17T07:01:08;102044.86;;;28.59;26.30
69239;BME280;56349;51.816;-0.026;2022-07-17T07:03:34;102047.01;;;28.90;26.20
69239;BME280;56349;51.816;-0.026;2022-07-17T07:06:00;102046.42;;;28.79;26.12
69239;BME280;56349;51.816;-0.026;2022-07-17T07:08:25;102047.83;;;28.89;26.09
69239;BME280;56349;51.816;-0.026;2022-07-17T07:10:51;102047.77;;;29.00;25.94
69239;BME280;56349;51.816;-0.026;2022-07-17T07:13:17;102050.38;;;29.12;25.89
69239;BME280;56349;51.816;-0.026;2022-07-17T07:15:43;102053.54;;;29.23;25.74
69239;BME280;56349;51.816;-0.026;2022-07-17T07:18:09;102052.72;;;29.04;25.62
69239;BME280;56349;51.816;-0.026;2022-07-17T07:20:35;102052.04;;;29.10;25.56
69239;BME280;56349;51.816;-0.026;2022-07-17T07:23:01;102050.36;;;29.44;25.53
69239;BME280;56349;51.816;-0.026;2022-07-17T07:25:26;102052.21;;;29.28;25.51
69239;BME280;56349;51.816;-0.026;2022-07-17T07:27:52;102053.61;;;29.38;25.39
69239;BME280;56349;51.816;-0.026;2022-07-17T07:30:18;102052.00;;;29.45;25.28
69239;BME280;56349;51.816;-0.026;2022-07-17T07:32:44;102052.12;;;29.52;25.18
69239;BME280;56349;51.816;-0.026;2022-07-17T07:35:10;102046.50;;;29.35;25.06
69239;BME280;56349;51.816;-0.026;2022-07-17T07:37:36;102042.55;;;29.59;24.94
69239;BME280;56349;51.816;-0.026;2022-07-17T07:40:01;102042.99;;;29.45;24.93
69239;BME280;56349;51.816;-0.026;2022-07-17T07:42:26;102043.05;;;29.57;24.87
69239;BME280;56349;51.816;-0.026;2022-07-17T07:44:52;102043.20;;;29.66;24.79
69239;BME280;56349;51.816;-0.026;2022-07-17T07:47:18;102044.72;;;29.77;24.71
69239;BME280;56349;51.816;-0.026;2022-07-17T07:49:44;102049.63;;;29.88;24.63
69239;BME280;56349;51.816;-0.026;2022-07-17T07:52:10;102051.74;;;30.00;24.58
69239;BME280;56349;51.816;-0.026;2022-07-17T07:54:36;102047.10;;;30.09;24.52
69239;BME280;56349;51.816;-0.026;2022-07-17T07:57:02;102045.56;;;30.15;24.42
69239;BME280;56349;51.816;-0.026;2022-07-17T07:59:27;102043.06;;;30.19;24.53
69239;BME280;56349;51.816;-0.026;2022-07-17T08:01:53;102041.39;;;30.19;24.41
69239;BME280;56349;51.816;-0.026;2022-07-17T08:04:19;102040.79;;;30.19;24.37
69239;BME280;56349;51.816;-0.026;2022-07-17T08:06:45;102041.64;;;30.21;24.36
69239;BME280;56349;51.816;-0.026;2022-07-17T08:09:10;102040.30;;;29.96;24.19
69239;BME280;56349;51.816;-0.026;2022-07-17T08:11:35;102042.43;;;29.95;24.12
69239;BME280;56349;51.816;-0.026;2022-07-17T08:14:01;102041.12;;;30.20;24.09
69239;BME280;56349;51.816;-0.026;2022-07-17T08:16:27;102042.52;;;30.16;23.96
69239;BME280;56349;51.816;-0.026;2022-07-17T08:18:53;102043.84;;;30.10;23.87
69239;BME280;56349;51.816;-0.026;2022-07-17T08:21:18;102039.76;;;30.22;24.06
69239;BME280;56349;51.816;-0.026;2022-07-17T08:23:44;102040.18;;;30.10;24.11
69239;BME280;56349;51.816;-0.026;2022-07-17T08:26:10;102035.80;;;29.95;24.25
69239;BME280;56349;51.816;-0.026;2022-07-17T08:28:36;102030.75;;;29.61;24.40
69239;BME280;56349;51.816;-0.026;2022-07-17T08:31:02;102028.59;;;29.97;24.55
69239;BME280;56349;51.816;-0.026;2022-07-17T08:33:28;102028.03;;;29.88;24.68
69239;BME280;56349;51.816;-0.026;2022-07-17T08:35:54;102033.12;;;29.54;24.62
69239;BME280;56349;51.816;-0.026;2022-07-17T08:38:20;102031.40;;;29.49;24.48
69239;BME280;56349;51.816;-0.026;2022-07-17T08:40:46;102030.58;;;29.47;24.42
69239;BME280;56349;51.816;-0.026;2022-07-17T08:43:12;102029.07;;;29.77;24.45
69239;BME280;56349;51.816;-0.026;2022-07-17T08:45:39;102030.65;;;29.81;24.41
69239;BME280;56349;51.816;-0.026;2022-07-17T08:48:03;102034.45;;;29.85;24.26
69239;BME280;56349;51.816;-0.026;2022-07-17T08:50:30;102037.37;;;29.66;24.22
69239;BME280;56349;51.816;-0.026;2022-07-17T08:52:54;102042.42;;;29.77;23.99
69239;BME280;56349;51.816;-0.026;2022-07-17T08:55:20;102035.96;;;29.63;23.80
69239;BME280;56349;51.816;-0.026;2022-07-17T08:57:46;102033.77;;;29.71;23.74
69239;BME280;56349;51.816;-0.026;2022-07-17T09:00:14;102035.75;;;29.83;23.70
69239;BME280;56349;51.816;-0.026;2022-07-17T09:02:37;102033.79;;;29.94;23.47
69239;BME280;56349;51.816;-0.026;2022-07-17T09:05:04;102032.30;;;30.04;23.26
69239;BME280;56349;51.816;-0.026;2022-07-17T09:07:30;102023.70;;;30.14;23.32
69239;BME280;56349;51.816;-0.026;2022-07-17T09:09:55;102021.76;;;30.47;23.29
69239;BME280;56349;51.816;-0.026;2022-07-17T09:12:25;102018.86;;;30.35;23.23
69239;BME280;56349;51.816;-0.026;2022-07-17T09:14:46;102018.33;;;30.66;23.20
69239;BME280;56349;51.816;-0.026;2022-07-17T09:17:12;102017.50;;;30.50;23.04
69239;BME280;56349;51.816;-0.026;2022-07-17T09:19:41;102018.91;;;30.56;23.03
69239;BME280;56349;51.816;-0.026;2022-07-17T09:22:05;102021.84;;;30.63;22.98
69239;BME280;56349;51.816;-0.026;2022-07-17T09:24:38;102029.28;;;30.45;22.89
69239;BME280;56349;51.816;-0.026;2022-07-17T09:26:54;102030.04;;;30.78;22.82
69239;BME280;56349;51.816;-0.026;2022-07-17T09:29:20;102029.09;;;30.38;22.66
69239;BME280;56349;51.816;-0.026;2022-07-17T09:31:51;102022.83;;;30.66;22.58
69239;BME280;56349;51.816;-0.026;2022-07-17T09:34:17;102021.99;;;30.49;22.55
69239;BME280;56349;51.816;-0.026;2022-07-17T09:36:38;102018.40;;;30.53;22.47
69239;BME280;56349;51.816;-0.026;2022-07-17T09:39:04;102013.16;;;30.78;22.45
69239;BME280;56349;51.816;-0.026;2022-07-17T09:41:29;102013.35;;;30.61;22.37
69239;BME280;56349;51.816;-0.026;2022-07-17T09:43:57;102006.86;;;31.12;22.32
69239;BME280;56349;51.816;-0.026;2022-07-17T09:46:23;102008.14;;;30.62;22.24
69239;BME280;56349;51.816;-0.026;2022-07-17T09:48:48;102007.89;;;31.08;22.21
69239;BME280;56349;51.816;-0.026;2022-07-17T09:51:15;102002.51;;;30.96;22.27
69239;BME280;56349;51.816;-0.026;2022-07-17T09:53:38;101995.53;;;30.83;22.32
69239;BME280;56349;51.816;-0.026;2022-07-17T09:56:05;101999.99;;;30.64;22.44
69239;BME280;56349;51.816;-0.026;2022-07-17T09:58:32;102002.87;;;30.44;22.55
69239;BME280;56349;51.816;-0.026;2022-07-17T10:00:55;102007.62;;;30.49;22.69
69239;BME280;56349;51.816;-0.026;2022-07-17T10:03:21;102008.09;;;30.12;22.81
69239;BME280;56349;51.816;-0.026;2022-07-17T10:05:46;102011.51;;;30.03;22.86
69239;BME280;56349;51.816;-0.026;2022-07-17T10:08:12;102007.83;;;30.47;22.87
69239;BME280;56349;51.816;-0.026;2022-07-17T10:10:37;102010.09;;;30.18;22.87
69239;BME280;56349;51.816;-0.026;2022-07-17T10:13:02;102008.17;;;30.02;22.77
69239;BME280;56349;51.816;-0.026;2022-07-17T10:15:28;102008.98;;;30.06;22.68
69239;BME280;56349;51.816;-0.026;2022-07-17T10:20:24;102004.91;;;30.38;22.57
69239;BME280;56349;51.816;-0.026;2022-07-17T10:22:46;102002.36;;;30.31;22.45
69239;BME280;56349;51.816;-0.026;2022-07-17T10:25:13;102003.07;;;30.40;22.37
69239;BME280;56349;51.816;-0.026;2022-07-17T10:27:45;102004.33;;;30.21;22.28
69239;BME280;56349;51.816;-0.026;2022-07-17T10:30:02;102001.20;;;30.56;22.16
69239;BME280;56349;51.816;-0.026;2022-07-17T10:32:25;101999.41;;;30.61;22.10
69239;BME280;56349;51.816;-0.026;2022-07-17T10:34:57;101993.47;;;30.20;22.09
69239;BME280;56349;51.816;-0.026;2022-07-17T10:37:17;101996.89;;;30.78;22.02
69239;BME280;56349;51.816;-0.026;2022-07-17T10:42:07;101995.56;;;30.91;21.85
69239;BME280;56349;51.816;-0.026;2022-07-17T10:44:32;101993.50;;;30.73;21.68
69239;BME280;56349;51.816;-0.026;2022-07-17T10:46:58;101991.56;;;31.05;21.41
69239;BME280;56349;51.816;-0.026;2022-07-17T10:49:23;101990.45;;;30.64;21.30
69239;BME280;56349;51.816;-0.026;2022-07-17T10:51:48;101982.31;;;31.19;21.10
69239;BME280;56349;51.816;-0.026;2022-07-17T10:54:14;101984.67;;;30.99;21.08
69239;BME280;56349;51.816;-0.026;2022-07-17T10:56:40;101986.34;;;30.85;20.96
69239;BME280;56349;51.816;-0.026;2022-07-17T10:59:06;101984.79;;;30.89;20.92
69239;BME280;56349;51.816;-0.026;2022-07-17T11:01:31;101980.29;;;30.95;20.85
69239;BME280;56349;51.816;-0.026;2022-07-17T11:03:57;101974.83;;;31.21;20.89
69239;BME280;56349;51.816;-0.026;2022-07-17T11:06:24;101972.13;;;31.02;20.94
69239;BME280;56349;51.816;-0.026;2022-07-17T11:08:50;101966.67;;;31.05;20.95
69239;BME280;56349;51.816;-0.026;2022-07-17T11:11:15;101968.47;;;31.09;20.90
69239;BME280;56349;51.816;-0.026;2022-07-17T11:13:38;101963.26;;;31.11;20.75
69239;BME280;56349;51.816;-0.026;2022-07-17T11:16:04;101957.17;;;31.07;20.72
69239;BME280;56349;51.816;-0.026;2022-07-17T11:18:30;101955.30;;;30.97;20.72
69239;BME280;56349;51.816;-0.026;2022-07-17T11:20:58;101956.44;;;30.82;20.73
69239;BME280;56349;51.816;-0.026;2022-07-17T11:23:23;101950.55;;;31.12;20.77
69239;BME280;56349;51.816;-0.026;2022-07-17T11:25:53;101948.98;;;30.69;20.81
69239;BME280;56349;51.816;-0.026;2022-07-17T11:28:12;101942.62;;;30.55;20.96
69239;BME280;56349;51.816;-0.026;2022-07-17T11:30:38;101942.47;;;30.68;21.09
69239;BME280;56349;51.816;-0.026;2022-07-17T11:35:30;101941.95;;;30.56;21.17
69239;BME280;56349;51.816;-0.026;2022-07-17T11:37:56;101937.32;;;30.55;21.24
69239;BME280;56349;51.816;-0.026;2022-07-17T11:40:21;101929.74;;;30.56;21.24
69239;BME280;56349;51.816;-0.026;2022-07-17T11:42:46;101926.36;;;30.60;21.19
69239;BME280;56349;51.816;-0.026;2022-07-17T11:45:12;101922.27;;;30.66;21.14
69239;BME280;56349;51.816;-0.026;2022-07-17T11:47:38;101919.47;;;30.74;21.01
69239;BME280;56349;51.816;-0.026;2022-07-17T11:50:07;101917.28;;;30.82;20.97
69239;BME280;56349;51.816;-0.026;2022-07-17T11:54:56;101910.72;;;30.97;20.89
69239;BME280;56349;51.816;-0.026;2022-07-17T11:57:22;101903.64;;;30.56;20.86
69239;BME280;56349;51.816;-0.026;2022-07-17T11:59:46;101901.40;;;31.11;20.86
69239;BME280;56349;51.816;-0.026;2022-07-17T12:02:13;101896.38;;;30.68;20.86
69239;BME280;56349;51.816;-0.026;2022-07-17T12:07:03;101896.39;;;30.82;20.82
69239;BME280;56349;51.816;-0.026;2022-07-17T12:09:29;101891.24;;;30.92;20.81
69239;BME280;56349;51.816;-0.026;2022-07-17T12:11:53;101888.85;;;30.99;20.86
69239;BME280;56349;51.816;-0.026;2022-07-17T12:14:19;101887.02;;;31.05;20.95
69239;BME280;56349;51.816;-0.026;2022-07-17T12:16:44;101883.10;;;31.12;21.01
69239;BME280;56349;51.816;-0.026;2022-07-17T12:19:11;101885.85;;;31.21;20.98
69239;BME280;56349;51.816;-0.026;2022-07-17T12:24:04;101883.43;;;31.34;20.91
69239;BME280;56349;51.816;-0.026;2022-07-17T12:26:27;101878.98;;;31.40;20.90
69239;BME280;56349;51.816;-0.026;2022-07-17T12:28:52;101880.88;;;31.42;20.88
69239;BME280;56349;51.816;-0.026;2022-07-17T12:31:17;101879.47;;;31.42;20.84
69239;BME280;56349;51.816;-0.026;2022-07-17T12:33:44;101876.85;;;31.38;20.83
69239;BME280;56349;51.816;-0.026;2022-07-17T12:36:09;101874.96;;;31.08;20.81
69239;BME280;56349;51.816;-0.026;2022-07-17T12:38:35;101868.60;;;31.17;20.89
69239;BME280;56349;51.816;-0.026;2022-07-17T12:41:01;101869.50;;;31.00;21.00
69239;BME280;56349;51.816;-0.026;2022-07-17T12:43:27;101865.37;;;31.05;21.11
69239;BME280;56349;51.816;-0.026;2022-07-17T12:45:53;101871.05;;;30.67;21.22